createdAt,value
2023-03-11T00:00:18.782Z,101034.66
2023-03-11T00:02:51.290Z,101043.63
2023-03-11T00:05:21.801Z,101028.78
2023-03-11T00:07:48.320Z,101047.91
2023-03-11T00:10:18.316Z,101037.31
2023-03-11T00:12:44.866Z,101052.94
2023-03-11T00:15:12.254Z,101052.88
2023-03-11T00:17:39.128Z,101055.53
2023-03-11T00:20:07.281Z,101057.16
2023-03-11T00:22:33.867Z,101051.06
2023-03-11T00:25:00.327Z,101065.75
2023-03-11T00:27:26.815Z,101070.84
2023-03-11T00:29:53.361Z,101075.13
2023-03-11T00:32:19.955Z,101073.34
2023-03-11T00:34:46.449Z,101069.13
2023-03-11T00:37:12.942Z,101075.94
2023-03-11T00:39:39.400Z,101072.53
2023-03-11T00:42:06.011Z,101072.59
2023-03-11T00:44:32.503Z,101074.22
2023-03-11T00:46:59.220Z,101075.94
2023-03-11T00:49:25.695Z,101081.88
2023-03-11T00:51:52.166Z,101074.94
2023-03-11T00:54:18.667Z,101074.88
2023-03-11T00:56:45.243Z,101078.25
2023-03-11T00:59:12.242Z,101072.19
2023-03-11T01:01:38.843Z,101065.28
2023-03-11T01:04:05.633Z,101068.56
2023-03-11T01:06:44.476Z,101070.97
2023-03-11T01:09:11.839Z,101068.31
2023-03-11T01:11:38.326Z,101062.13
2023-03-11T01:14:05.175Z,101060.50
2023-03-11T01:16:31.892Z,101056.09
2023-03-11T01:18:58.430Z,101042.13
2023-03-11T01:21:24.880Z,101053.34
2023-03-11T01:23:51.387Z,101052.19
2023-03-11T01:26:17.934Z,101048.69
2023-03-11T01:28:44.453Z,101056.41
2023-03-11T01:31:11.031Z,101056.19
2023-03-11T01:33:38.225Z,101063.91
2023-03-11T01:36:05.634Z,101062.09
2023-03-11T01:38:32.133Z,101066.31
2023-03-11T01:40:58.582Z,101067.19
2023-03-11T01:43:37.053Z,101064.47
2023-03-11T01:46:25.673Z,101072.13
2023-03-11T01:49:00.498Z,101057.31
2023-03-11T01:51:35.599Z,101059.13
2023-03-11T01:54:11.514Z,101063.28
2023-03-11T01:56:39.914Z,101059.78
2023-03-11T01:59:08.826Z,101050.06
2023-03-11T02:01:41.499Z,101057.75
2023-03-11T02:04:08.245Z,101053.31
2023-03-11T02:06:34.777Z,101067.81
2023-03-11T02:09:02.066Z,101060.97
2023-03-11T02:11:31.052Z,101054.50
2023-03-11T02:14:03.055Z,101057.13
2023-03-11T02:16:29.680Z,101071.00
2023-03-11T02:19:00.488Z,101062.44
2023-03-11T02:21:32.719Z,101062.28
2023-03-11T02:24:25.032Z,101060.66
2023-03-11T02:27:12.003Z,101058.91
2023-03-11T02:29:39.132Z,101058.00
2023-03-11T02:32:08.390Z,101041.47
2023-03-11T02:34:39.126Z,101036.19
2023-03-11T02:37:12.878Z,101043.06
2023-03-11T02:39:45.293Z,101031.00
2023-03-11T02:42:35.956Z,101027.50
2023-03-11T02:45:12.312Z,101033.72
2023-03-11T02:47:40.463Z,101029.34
2023-03-11T02:50:12.149Z,101020.84
2023-03-11T02:52:39.179Z,101022.41
2023-03-11T02:55:10.256Z,101013.56
2023-03-11T02:57:38.843Z,101017.91
2023-03-11T03:00:12.754Z,100992.47
2023-03-11T03:02:45.506Z,101010.59
2023-03-11T03:05:13.159Z,101019.47
2023-03-11T03:07:40.490Z,101018.38
2023-03-11T03:10:08.231Z,101004.28
2023-03-11T03:12:35.739Z,101015.66
2023-03-11T03:15:02.535Z,101006.81
2023-03-11T03:17:29.235Z,101007.63
2023-03-11T03:19:55.969Z,101013.56
2023-03-11T03:22:22.633Z,101013.66
2023-03-11T03:24:49.338Z,101014.00
2023-03-11T03:27:16.084Z,101005.50
2023-03-11T03:29:42.671Z,101009.94
2023-03-11T03:32:09.376Z,101012.50
2023-03-11T03:34:36.092Z,101009.16
2023-03-11T03:37:02.755Z,101003.97
2023-03-11T03:39:30.742Z,101003.09
2023-03-11T03:41:58.156Z,100997.03
2023-03-11T03:44:26.597Z,100991.06
2023-03-11T03:46:53.401Z,101005.16
2023-03-11T03:49:20.117Z,101005.16
2023-03-11T03:51:47.264Z,101003.41
2023-03-11T03:54:22.632Z,101008.50
2023-03-11T03:56:49.994Z,101005.88
2023-03-11T03:59:17.087Z,101011.81
2023-03-11T04:01:49.605Z,101006.66
2023-03-11T04:04:17.551Z,101015.16
2023-03-11T04:06:44.169Z,101026.13
2023-03-11T04:09:12.002Z,101011.53
2023-03-11T04:11:38.779Z,101017.63
2023-03-11T04:14:05.990Z,101014.09
2023-03-11T04:16:36.795Z,101016.63
2023-03-11T04:19:09.431Z,101013.94
2023-03-11T04:21:36.629Z,101022.28
2023-03-11T04:24:04.357Z,101000.47
2023-03-11T04:26:34.969Z,101016.69
2023-03-11T04:29:02.740Z,101031.31
2023-03-11T04:31:33.857Z,101033.72
2023-03-11T04:34:04.715Z,101039.59
2023-03-11T04:36:31.409Z,101051.66
2023-03-11T04:38:58.199Z,101046.44
2023-03-11T04:41:26.877Z,101050.72
2023-03-11T04:43:54.105Z,101055.16
2023-03-11T04:46:21.220Z,101051.53
2023-03-11T04:48:48.779Z,101063.59
2023-03-11T04:51:15.483Z,101064.59
2023-03-11T04:53:42.457Z,101054.28
2023-03-11T04:56:09.261Z,101057.91
2023-03-11T04:58:38.283Z,101047.66
2023-03-11T05:01:06.509Z,101054.56
2023-03-11T05:03:35.550Z,101048.63
2023-03-11T05:06:02.130Z,101052.75
2023-03-11T05:08:28.690Z,101051.94
2023-03-11T05:10:55.433Z,101060.75
2023-03-11T05:13:22.994Z,101055.59
2023-03-11T05:15:51.772Z,101077.84
2023-03-11T05:18:18.362Z,101062.44
2023-03-11T05:20:45.669Z,101072.75
2023-03-11T05:23:13.820Z,101075.44
2023-03-11T05:25:40.863Z,101063.38
2023-03-11T05:28:08.308Z,101076.25
2023-03-11T05:30:40.432Z,101083.94
2023-03-11T05:33:08.852Z,101076.25
2023-03-11T05:35:35.986Z,101074.66
2023-03-11T05:38:02.918Z,101069.56
2023-03-11T05:40:30.482Z,101068.69
2023-03-11T05:42:57.216Z,101082.38
2023-03-11T05:45:25.378Z,101083.06
2023-03-11T05:47:53.556Z,101078.16
2023-03-11T05:50:20.319Z,101080.44
2023-03-11T05:52:48.407Z,101091.66
2023-03-11T05:55:15.612Z,101086.41
2023-03-11T05:57:44.555Z,101089.91
2023-03-11T06:00:11.866Z,101099.31
2023-03-11T06:02:43.048Z,101105.19
2023-03-11T06:05:13.903Z,101101.69
2023-03-11T06:07:42.986Z,101098.34
2023-03-11T06:10:10.740Z,101097.38
2023-03-11T06:12:39.231Z,101108.59
2023-03-11T06:15:27.532Z,101102.72
2023-03-11T06:17:54.285Z,101100.19
2023-03-11T06:20:21.502Z,101104.41
2023-03-11T06:22:49.356Z,101097.56
2023-03-11T06:25:16.329Z,101103.53
2023-03-11T06:27:44.307Z,101105.19
2023-03-11T06:30:11.848Z,101097.56
2023-03-11T06:32:47.220Z,101090.41
2023-03-11T06:35:14.508Z,101079.28
2023-03-11T06:37:41.389Z,101102.78
2023-03-11T06:40:10.104Z,101085.53
2023-03-11T06:42:37.011Z,101100.22
2023-03-11T06:45:04.994Z,101105.19
2023-03-11T06:47:32.076Z,101115.66
2023-03-11T06:49:59.921Z,101119.13
2023-03-11T06:52:27.180Z,101122.50
2023-03-11T06:54:55.632Z,101132.81
2023-03-11T06:57:22.466Z,101127.81
2023-03-11T06:59:50.910Z,101118.28
2023-03-11T07:02:18.531Z,101128.81
2023-03-11T07:04:52.137Z,101135.44
2023-03-11T07:07:19.696Z,101125.09
2023-03-11T07:09:46.361Z,101153.66
2023-03-11T07:12:14.215Z,101145.19
2023-03-11T07:14:40.884Z,101147.72
2023-03-11T07:17:07.535Z,101159.75
2023-03-11T07:19:39.062Z,101161.63
2023-03-11T07:22:05.646Z,101140.75
2023-03-11T07:24:32.243Z,101158.22
2023-03-11T07:26:58.808Z,101171.91
2023-03-11T07:29:25.459Z,101167.59
2023-03-11T07:31:52.027Z,101160.13
2023-03-11T07:34:18.982Z,101163.69
2023-03-11T07:36:45.652Z,101157.59
2023-03-11T07:39:19.966Z,101163.97
2023-03-11T07:41:47.398Z,101165.72
2023-03-11T07:44:15.831Z,101153.91
2023-03-11T07:46:43.401Z,101149.78
2023-03-11T07:49:10.503Z,101160.06
2023-03-11T07:51:37.992Z,101154.09
2023-03-11T07:54:05.221Z,101144.91
2023-03-11T07:56:34.529Z,101152.63
2023-03-11T07:59:02.770Z,101150.94
2023-03-11T08:01:31.846Z,101159.56
2023-03-11T08:03:58.506Z,101159.59
2023-03-11T08:06:28.519Z,101169.06
2023-03-11T08:08:55.133Z,101178.53
2023-03-11T08:11:21.760Z,101181.09
2023-03-11T08:13:49.161Z,101164.09
2023-03-11T08:16:18.939Z,101171.25
2023-03-11T08:18:50.206Z,101151.66
2023-03-11T08:21:20.085Z,101153.56
2023-03-11T08:23:46.741Z,101129.56
2023-03-11T08:26:16.320Z,101156.81
2023-03-11T08:28:42.970Z,101154.03
2023-03-11T08:31:20.834Z,101156.19
2023-03-11T08:33:49.914Z,101153.97
2023-03-11T08:36:17.864Z,101155.94
2023-03-11T08:38:44.597Z,101163.84
2023-03-11T08:41:11.302Z,101145.06
2023-03-11T08:43:38.366Z,101157.47
2023-03-11T08:46:06.038Z,101167.34
2023-03-11T08:48:33.257Z,101161.56
2023-03-11T08:51:00.203Z,101148.16
2023-03-11T08:53:26.860Z,101164.91
2023-03-11T08:55:53.494Z,101145.38
2023-03-11T08:58:21.046Z,101139.63
2023-03-11T09:00:48.335Z,101141.78
2023-03-11T09:03:15.300Z,101173.50
2023-03-11T09:05:43.194Z,101168.72
2023-03-11T09:08:09.781Z,101156.94
2023-03-11T09:10:36.422Z,101156.53
2023-03-11T09:13:03.433Z,101150.31
2023-03-11T09:15:29.943Z,101159.19
2023-03-11T09:17:56.518Z,101150.69
2023-03-11T09:20:23.336Z,101156.69
2023-03-11T09:22:49.950Z,101167.81
2023-03-11T09:25:16.771Z,101173.34
2023-03-11T09:27:44.063Z,101165.91
2023-03-11T09:30:11.328Z,101168.84
2023-03-11T09:32:37.983Z,101175.72
2023-03-11T09:35:05.094Z,101177.47
2023-03-11T09:37:31.791Z,101172.22
2023-03-11T09:39:59.033Z,101184.56
2023-03-11T09:42:43.373Z,101179.22
2023-03-11T09:45:39.379Z,101174.66
2023-03-11T09:48:22.747Z,101190.53
2023-03-11T09:51:20.462Z,101174.69
2023-03-11T09:53:52.070Z,101152.63
2023-03-11T09:56:20.703Z,101161.63
2023-03-11T09:58:48.554Z,101158.63
2023-03-11T10:01:25.980Z,101165.75
2023-03-11T10:03:56.511Z,101170.31
2023-03-11T10:06:25.070Z,101161.91
2023-03-11T10:09:14.017Z,101164.66
2023-03-11T10:12:10.325Z,101168.28
2023-03-11T10:15:07.018Z,101161.69
2023-03-11T10:17:36.540Z,101159.31
2023-03-11T10:20:19.936Z,101137.00
2023-03-11T10:23:00.003Z,101142.38
2023-03-11T10:25:29.748Z,101145.97
2023-03-11T10:28:12.291Z,101139.09
2023-03-11T10:30:52.880Z,101138.25
2023-03-11T10:33:47.715Z,101141.16
2023-03-11T10:36:21.258Z,101150.13
2023-03-11T10:38:49.073Z,101143.53
2023-03-11T10:41:15.602Z,101156.75
2023-03-11T10:43:49.197Z,101146.50
2023-03-11T10:46:20.645Z,101159.50
2023-03-11T10:48:47.387Z,101151.75
2023-03-11T10:51:19.254Z,101151.84
2023-03-11T10:54:06.055Z,101149.38
2023-03-11T10:56:41.227Z,101150.34
2023-03-11T10:59:28.987Z,101155.59
2023-03-11T11:02:24.177Z,101128.72
2023-03-11T11:05:18.970Z,101138.28
2023-03-11T11:07:51.463Z,101152.94
2023-03-11T11:10:32.340Z,101134.75
2023-03-11T11:13:12.593Z,101139.91
2023-03-11T11:15:59.504Z,101142.38
2023-03-11T11:18:49.457Z,101134.59
2023-03-11T11:21:28.515Z,101138.84
2023-03-11T11:24:18.285Z,101133.75
2023-03-11T11:27:04.046Z,101141.59
2023-03-11T11:29:32.344Z,101133.91
2023-03-11T11:32:19.792Z,101134.81
2023-03-11T11:34:53.863Z,101134.78
2023-03-11T11:37:20.849Z,101130.41
2023-03-11T11:39:54.102Z,101122.56
2023-03-11T11:42:21.969Z,101117.28
2023-03-11T11:44:58.944Z,101120.69
2023-03-11T11:47:33.089Z,101120.63
2023-03-11T11:50:03.239Z,101115.31
2023-03-11T11:52:52.580Z,101103.06
2023-03-11T11:55:29.040Z,101108.19
2023-03-11T11:57:56.552Z,101112.41
2023-03-11T12:00:34.470Z,101113.16
2023-03-11T12:03:27.393Z,101120.13
2023-03-11T12:06:04.912Z,101114.13
2023-03-11T12:09:17.157Z,101115.00
2023-03-11T12:11:55.118Z,101118.50
2023-03-11T12:14:39.687Z,101122.06
2023-03-11T12:17:08.495Z,101113.47
2023-03-11T12:19:43.980Z,101118.81
2023-03-11T12:22:13.424Z,101105.97
2023-03-11T12:25:01.884Z,101113.75
2023-03-11T12:27:47.808Z,101093.97
2023-03-11T12:30:21.782Z,101107.09
2023-03-11T12:32:56.291Z,101105.44
2023-03-11T12:35:24.582Z,101100.34
2023-03-11T12:38:04.681Z,101105.56
2023-03-11T12:40:49.456Z,101111.75
2023-03-11T12:43:31.338Z,101107.66
2023-03-11T12:45:58.530Z,101109.59
2023-03-11T12:48:44.434Z,101113.19
2023-03-11T12:51:26.249Z,101106.53
2023-03-11T12:53:54.520Z,101094.63
2023-03-11T12:56:50.352Z,101094.84
2023-03-11T12:59:32.136Z,101082.09
2023-03-11T13:02:01.778Z,101083.06
2023-03-11T13:04:49.813Z,101084.88
2023-03-11T13:07:22.132Z,101077.97
2023-03-11T13:10:07.089Z,101076.22
2023-03-11T13:12:45.195Z,101070.16
2023-03-11T13:15:21.014Z,101068.53
2023-03-11T13:18:04.639Z,101064.22
2023-03-11T13:20:40.224Z,101056.44
2023-03-11T13:23:12.833Z,101064.22
2023-03-11T13:25:56.480Z,101058.19
2023-03-11T13:28:28.943Z,101056.47
2023-03-11T13:31:19.432Z,101050.47
2023-03-11T13:33:49.470Z,101037.53
2023-03-11T13:36:38.105Z,101035.78
2023-03-11T13:39:19.105Z,101045.25
2023-03-11T13:41:46.204Z,101030.53
2023-03-11T13:44:33.626Z,101033.00
2023-03-11T13:47:07.254Z,101021.75
2023-03-11T13:49:44.333Z,101020.00
2023-03-11T13:53:03.410Z,101026.91
2023-03-11T13:55:44.594Z,101026.03
2023-03-11T13:58:22.504Z,101019.09
2023-03-11T14:00:51.634Z,101026.94
2023-03-11T14:03:18.830Z,101018.31
2023-03-11T14:05:47.660Z,101016.56
2023-03-11T14:08:30.841Z,101018.25
2023-03-11T14:10:57.339Z,101017.38
2023-03-11T14:13:25.977Z,101004.38
2023-03-11T14:16:01.693Z,101008.63
2023-03-11T14:18:39.517Z,101012.09
2023-03-11T14:21:19.415Z,101012.91
2023-03-11T14:23:52.413Z,101012.91
2023-03-11T14:26:23.561Z,100996.44
2023-03-11T14:28:52.955Z,100993.88
2023-03-11T14:31:24.075Z,100992.22
2023-03-11T14:33:57.369Z,100978.41
2023-03-11T14:36:23.955Z,100972.41
2023-03-11T14:38:50.496Z,100970.72
2023-03-11T14:41:17.138Z,100965.56
2023-03-11T14:43:49.460Z,100973.34
2023-03-11T14:46:22.150Z,100980.16
2023-03-11T14:48:48.685Z,100974.13
2023-03-11T14:51:23.173Z,100954.22
2023-03-11T14:53:55.801Z,100951.66
2023-03-11T14:56:26.117Z,100942.13
2023-03-11T14:59:07.668Z,100948.09
2023-03-11T15:01:40.301Z,100939.38
2023-03-11T15:04:12.979Z,100954.84
2023-03-11T15:06:45.118Z,100956.44
2023-03-11T15:09:15.363Z,100952.84
2023-03-11T15:11:57.140Z,100950.16
2023-03-11T15:14:29.538Z,100963.16
2023-03-11T15:17:35.219Z,100968.28
2023-03-11T15:20:04.191Z,100951.91
2023-03-11T15:22:40.527Z,100958.06
2023-03-11T15:25:19.207Z,100956.38
2023-03-11T15:27:46.782Z,100955.66
2023-03-11T15:30:19.912Z,100972.13
2023-03-11T15:32:47.381Z,100962.69
2023-03-11T15:35:21.735Z,100961.84
2023-03-11T15:38:12.527Z,100956.63
2023-03-11T15:40:45.575Z,100953.16
2023-03-11T15:43:20.337Z,100954.00
2023-03-11T15:45:47.232Z,100953.09
2023-03-11T15:48:14.030Z,100948.81
2023-03-11T15:50:53.387Z,100947.06
2023-03-11T15:53:22.294Z,100940.94
2023-03-11T15:55:49.561Z,100933.09
2023-03-11T15:58:19.197Z,100927.81
2023-03-11T16:00:54.968Z,100935.56
2023-03-11T16:03:22.108Z,100925.97
2023-03-11T16:05:49.310Z,100904.22
2023-03-11T16:08:16.722Z,100917.97
2023-03-11T16:10:43.636Z,100929.06
2023-03-11T16:13:13.234Z,100936.81
2023-03-11T16:15:40.553Z,100933.31
2023-03-11T16:18:08.062Z,100919.47
2023-03-11T16:20:55.211Z,100908.19
2023-03-11T16:23:25.976Z,100899.53
2023-03-11T16:25:58.517Z,100901.19
2023-03-11T16:28:25.384Z,100908.84
2023-03-11T16:30:52.111Z,100918.31
2023-03-11T16:33:18.838Z,100921.69
2023-03-11T16:35:46.470Z,100915.56
2023-03-11T16:38:13.122Z,100925.94
2023-03-11T16:40:40.073Z,100912.06
2023-03-11T16:43:10.081Z,100905.13
2023-03-11T16:45:37.184Z,100918.94
2023-03-11T16:48:04.221Z,100928.31
2023-03-11T16:50:31.959Z,100926.47
2023-03-11T16:52:59.240Z,100925.66
2023-03-11T16:55:27.263Z,100920.44
2023-03-11T16:57:54.098Z,100914.34
2023-03-11T17:00:20.974Z,100918.63
2023-03-11T17:02:47.526Z,100906.59
2023-03-11T17:05:14.165Z,100897.94
2023-03-11T17:07:40.768Z,100901.28
2023-03-11T17:10:09.052Z,100911.50
2023-03-11T17:12:35.618Z,100913.94
2023-03-11T17:15:02.430Z,100940.53
2023-03-11T17:17:29.037Z,100929.19
2023-03-11T17:19:55.550Z,100921.38
2023-03-11T17:22:22.050Z,100932.53
2023-03-11T17:24:48.556Z,100928.16
2023-03-11T17:27:15.303Z,100943.72
2023-03-11T17:29:41.990Z,100938.47
2023-03-11T17:32:08.835Z,100944.44
2023-03-11T17:34:35.603Z,100937.41
2023-03-11T17:37:02.155Z,100932.97
2023-03-11T17:39:31.314Z,100944.13
2023-03-11T17:41:57.926Z,100935.53
2023-03-11T17:44:24.487Z,100931.97
2023-03-11T17:46:51.191Z,100939.63
2023-03-11T17:49:17.795Z,100938.69
2023-03-11T17:51:44.598Z,100935.16
2023-03-11T17:54:11.181Z,100929.09
2023-03-11T17:56:37.680Z,100926.41
2023-03-11T17:59:04.256Z,100930.59
2023-03-11T18:01:30.891Z,100933.09
2023-03-11T18:03:57.542Z,100920.94
2023-03-11T18:06:24.824Z,100917.41
2023-03-11T18:08:51.436Z,100919.09
2023-03-11T18:11:21.705Z,100913.91
2023-03-11T18:13:48.973Z,100923.25
2023-03-11T18:16:24.362Z,100930.91
2023-03-11T18:18:51.957Z,100908.41
2023-03-11T18:21:21.082Z,100923.13
2023-03-11T18:23:48.285Z,100916.22
2023-03-11T18:26:17.548Z,100920.44
2023-03-11T18:28:44.332Z,100923.81
2023-03-11T18:31:13.781Z,100915.19
2023-03-11T18:33:42.636Z,100897.13
2023-03-11T18:36:24.270Z,100912.53
2023-03-11T18:38:52.877Z,100920.22
2023-03-11T18:41:19.659Z,100916.69
2023-03-11T18:43:46.927Z,100926.19
2023-03-11T18:46:16.157Z,100919.09
2023-03-11T18:48:43.011Z,100928.59
2023-03-11T18:51:09.548Z,100941.47
2023-03-11T18:53:36.594Z,100931.81
2023-03-11T18:56:06.283Z,100946.47
2023-03-11T18:58:33.168Z,100944.75
2023-03-11T19:01:09.887Z,100942.09
2023-03-11T19:03:36.643Z,100940.06
2023-03-11T19:06:03.282Z,100943.66
2023-03-11T19:08:30.077Z,100942.69
2023-03-11T19:10:56.676Z,100938.34
2023-03-11T19:13:23.350Z,100925.34
2023-03-11T19:15:50.505Z,100921.88
2023-03-11T19:18:17.170Z,100918.38
2023-03-11T19:20:43.720Z,100909.63
2023-03-11T19:23:10.319Z,100913.94
2023-03-11T19:25:37.726Z,100906.19
2023-03-11T19:28:04.475Z,100894.00
2023-03-11T19:30:31.083Z,100895.75
2023-03-11T19:32:57.663Z,100891.34
2023-03-11T19:35:24.209Z,100894.00
2023-03-11T19:37:50.966Z,100899.06
2023-03-11T19:40:17.973Z,100895.69
2023-03-11T19:42:44.533Z,100906.75
2023-03-11T19:45:11.480Z,100896.50
2023-03-11T19:47:38.918Z,100896.44
2023-03-11T19:50:08.714Z,100888.69
2023-03-11T19:52:35.826Z,100880.13
2023-03-11T19:55:02.828Z,100871.25
2023-03-11T19:57:34.022Z,100860.75
2023-03-11T20:00:01.339Z,100865.97
2023-03-11T20:02:28.214Z,100878.00
2023-03-11T20:04:58.473Z,100869.53
2023-03-11T20:07:28.354Z,100901.53
2023-03-11T20:09:56.059Z,100865.91
2023-03-11T20:12:23.558Z,100864.19
2023-03-11T20:14:51.365Z,100896.31
2023-03-11T20:20:00.184Z,100859.06
2023-03-11T20:22:27.074Z,100841.81
2023-03-11T20:24:53.973Z,100838.47
2023-03-11T20:27:24.930Z,100852.09
2023-03-11T20:29:52.131Z,100867.72
2023-03-11T20:32:19.610Z,100846.00
2023-03-11T20:34:47.437Z,100842.59
2023-03-11T20:37:14.866Z,100843.38
2023-03-11T20:39:43.552Z,100844.94
2023-03-11T20:42:12.436Z,100836.25
2023-03-11T20:44:40.196Z,100835.34
2023-03-11T20:47:11.214Z,100846.38
2023-03-11T20:49:38.359Z,100834.41
2023-03-11T20:54:46.866Z,100816.16
2023-03-11T20:57:14.888Z,100815.22
2023-03-11T20:59:41.621Z,100805.69
2023-03-11T21:02:12.195Z,100799.69
2023-03-11T21:04:39.436Z,100807.53
2023-03-11T21:07:06.430Z,100782.50
2023-03-11T21:09:33.717Z,100784.16
2023-03-11T21:12:02.539Z,100786.56
2023-03-11T21:14:29.814Z,100787.44
2023-03-11T21:16:57.368Z,100778.00
2023-03-11T21:19:24.813Z,100777.13
2023-03-11T21:21:51.742Z,100772.81
2023-03-11T21:24:18.770Z,100793.69
2023-03-11T21:26:46.270Z,100762.47
2023-03-11T21:29:13.518Z,100782.41
2023-03-11T21:31:40.430Z,100779.84
2023-03-11T21:34:13.613Z,100754.69
2023-03-11T21:36:40.702Z,100784.25
2023-03-11T21:39:07.837Z,100760.81
2023-03-11T21:41:34.546Z,100751.34
2023-03-11T21:44:01.416Z,100754.81
2023-03-11T21:46:30.784Z,100763.59
2023-03-11T21:48:58.488Z,100764.44
2023-03-11T21:51:25.873Z,100749.84
2023-03-11T21:53:52.622Z,100748.94
2023-03-11T21:56:19.553Z,100750.66
2023-03-11T21:58:46.341Z,100748.03
2023-03-11T22:01:13.025Z,100748.09
2023-03-11T22:03:39.753Z,100743.75
2023-03-11T22:06:12.320Z,100753.25
2023-03-11T22:08:40.514Z,100752.38
2023-03-11T22:11:09.681Z,100742.06
2023-03-11T22:13:36.874Z,100741.28
2023-03-11T22:16:06.972Z,100731.81
2023-03-11T22:18:34.002Z,100729.31
2023-03-11T22:21:01.693Z,100724.13
2023-03-11T22:23:28.416Z,100738.72
2023-03-11T22:25:55.125Z,100732.75
2023-03-11T22:28:21.807Z,100736.25
2023-03-11T22:30:48.374Z,100738.81
2023-03-11T22:33:14.926Z,100731.91
2023-03-11T22:35:41.529Z,100723.41
2023-03-11T22:38:08.100Z,100721.69
2023-03-11T22:40:34.935Z,100726.00
2023-03-11T22:43:01.511Z,100724.25
2023-03-11T22:45:28.088Z,100714.00
2023-03-11T22:47:54.610Z,100720.84
2023-03-11T22:50:21.153Z,100707.22
2023-03-11T22:52:47.762Z,100685.78
2023-03-11T22:55:14.302Z,100685.06
2023-03-11T22:57:40.870Z,100677.28
2023-03-11T23:00:16.605Z,100680.78
2023-03-11T23:02:45.195Z,100664.53
2023-03-11T23:05:15.712Z,100653.44
2023-03-11T23:07:42.830Z,100658.66
2023-03-11T23:10:11.552Z,100667.25
2023-03-11T23:12:38.940Z,100672.41
2023-03-11T23:15:08.675Z,100668.06
2023-03-11T23:17:35.708Z,100663.94
2023-03-11T23:20:03.571Z,100660.53
2023-03-11T23:22:30.207Z,100659.72
2023-03-11T23:25:00.622Z,100655.50
2023-03-11T23:27:28.754Z,100643.56
2023-03-11T23:29:55.340Z,100650.44
2023-03-11T23:32:22.052Z,100641.06
2023-03-11T23:34:48.569Z,100640.28
2023-03-11T23:37:15.152Z,100629.16
2023-03-11T23:39:41.690Z,100632.69
2023-03-11T23:42:24.569Z,100625.81
2023-03-11T23:44:53.093Z,100624.09
2023-03-11T23:47:19.905Z,100625.94
2023-03-11T23:49:46.518Z,100623.28
2023-03-11T23:52:13.145Z,100620.63
2023-03-11T23:54:39.643Z,100622.47
2023-03-11T23:57:06.235Z,100621.63
2023-03-11T23:59:32.824Z,100594.06
